sensor_id;sensor_type;location;lat;lon;timestamp;P1;durP1;ratioP1;P2;durP2;ratioP2
44078;SDS011;29744;49.078;12.878;2022-08-19T00:00:49;4.35;;;2.75;;
44078;SDS011;29744;49.078;12.878;2022-08-19T00:05:50;5.28;;;3.00;;
44078;SDS011;29744;49.078;12.878;2022-08-19T00:10:50;5.07;;;3.20;;
44078;SDS011;29744;49.078;12.878;2022-08-19T00:15:50;4.53;;;3.08;;
44078;SDS011;29744;49.078;12.878;2022-08-19T00:20:51;4.55;;;2.88;;
44078;SDS011;29744;49.078;12.878;2022-08-19T00:25:52;4.53;;;2.72;;
44078;SDS011;29744;49.078;12.878;2022-08-19T00:30:53;5.28;;;3.00;;
44078;SDS011;29744;49.078;12.878;2022-08-19T00:35:54;4.90;;;3.33;;
44078;SDS011;29744;49.078;12.878;2022-08-19T00:40:55;4.43;;;2.88;;
44078;SDS011;29744;49.078;12.878;2022-08-19T00:45:55;4.30;;;2.80;;
44078;SDS011;29744;49.078;12.878;2022-08-19T00:50:56;4.18;;;3.00;;
44078;SDS011;29744;49.078;12.878;2022-08-19T00:55:58;4.25;;;2.50;;
44078;SDS011;29744;49.078;12.878;2022-08-19T01:01:01;4.35;;;2.63;;
44078;SDS011;29744;49.078;12.878;2022-08-19T01:06:03;4.22;;;2.83;;
44078;SDS011;29744;49.078;12.878;2022-08-19T01:11:05;4.63;;;2.90;;
44078;SDS011;29744;49.078;12.878;2022-08-19T01:16:08;4.20;;;2.78;;
44078;SDS011;29744;49.078;12.878;2022-08-19T01:21:18;4.03;;;2.60;;
44078;SDS011;29744;49.078;12.878;2022-08-19T01:26:25;4.45;;;2.83;;
44078;SDS011;29744;49.078;12.878;2022-08-19T01:31:27;4.40;;;2.55;;
44078;SDS011;29744;49.078;12.878;2022-08-19T01:36:41;3.97;;;2.58;;
44078;SDS011;29744;49.078;12.878;2022-08-19T01:41:47;4.60;;;2.95;;
44078;SDS011;29744;49.078;12.878;2022-08-19T01:46:48;3.75;;;2.65;;
44078;SDS011;29744;49.078;12.878;2022-08-19T01:51:49;3.85;;;2.80;;
44078;SDS011;29744;49.078;12.878;2022-08-19T01:56:51;4.53;;;2.85;;
44078;SDS011;29744;49.078;12.878;2022-08-19T02:01:52;4.15;;;2.65;;
44078;SDS011;29744;49.078;12.878;2022-08-19T02:06:52;4.07;;;2.60;;
44078;SDS011;29744;49.078;12.878;2022-08-19T02:11:53;4.85;;;2.78;;
44078;SDS011;29744;49.078;12.878;2022-08-19T02:16:53;3.78;;;2.42;;
44078;SDS011;29744;49.078;12.878;2022-08-19T02:21:53;3.42;;;2.45;;
44078;SDS011;29744;49.078;12.878;2022-08-19T02:26:54;4.38;;;2.53;;
44078;SDS011;29744;49.078;12.878;2022-08-19T02:31:54;3.90;;;2.75;;
44078;SDS011;29744;49.078;12.878;2022-08-19T02:36:54;4.00;;;2.83;;
44078;SDS011;29744;49.078;12.878;2022-08-19T02:41:54;3.97;;;2.63;;
44078;SDS011;29744;49.078;12.878;2022-08-19T02:46:55;4.10;;;2.50;;
44078;SDS011;29744;49.078;12.878;2022-08-19T02:51:55;3.83;;;2.80;;
44078;SDS011;29744;49.078;12.878;2022-08-19T02:56:55;4.10;;;2.70;;
44078;SDS011;29744;49.078;12.878;2022-08-19T03:01:56;4.40;;;2.72;;
44078;SDS011;29744;49.078;12.878;2022-08-19T03:06:56;4.05;;;2.70;;
44078;SDS011;29744;49.078;12.878;2022-08-19T03:11:57;3.80;;;2.63;;
44078;SDS011;29744;49.078;12.878;2022-08-19T03:16:57;4.10;;;2.88;;
44078;SDS011;29744;49.078;12.878;2022-08-19T03:21:58;3.90;;;2.58;;
44078;SDS011;29744;49.078;12.878;2022-08-19T03:26:58;3.95;;;2.63;;
44078;SDS011;29744;49.078;12.878;2022-08-19T03:31:59;3.90;;;3.00;;
44078;SDS011;29744;49.078;12.878;2022-08-19T03:37:03;4.38;;;2.88;;
44078;SDS011;29744;49.078;12.878;2022-08-19T03:42:05;4.05;;;2.83;;
44078;SDS011;29744;49.078;12.878;2022-08-19T03:47:05;3.95;;;2.72;;
44078;SDS011;29744;49.078;12.878;2022-08-19T03:52:06;4.82;;;3.03;;
44078;SDS011;29744;49.078;12.878;2022-08-19T03:57:07;4.75;;;2.88;;
44078;SDS011;29744;49.078;12.878;2022-08-19T04:02:09;4.25;;;3.10;;
44078;SDS011;29744;49.078;12.878;2022-08-19T04:07:12;4.20;;;3.08;;
44078;SDS011;29744;49.078;12.878;2022-08-19T04:12:16;3.92;;;3.00;;
44078;SDS011;29744;49.078;12.878;2022-08-19T04:17:16;4.75;;;3.00;;
44078;SDS011;29744;49.078;12.878;2022-08-19T04:22:16;4.30;;;2.83;;
44078;SDS011;29744;49.078;12.878;2022-08-19T04:27:18;4.47;;;3.08;;
44078;SDS011;29744;49.078;12.878;2022-08-19T04:32:18;4.47;;;3.08;;
44078;SDS011;29744;49.078;12.878;2022-08-19T04:37:18;4.22;;;2.92;;
44078;SDS011;29744;49.078;12.878;2022-08-19T04:42:19;4.55;;;3.00;;
44078;SDS011;29744;49.078;12.878;2022-08-19T04:47:38;4.38;;;3.25;;
44078;SDS011;29744;49.078;12.878;2022-08-19T04:52:40;4.57;;;3.25;;
44078;SDS011;29744;49.078;12.878;2022-08-19T04:57:42;4.53;;;3.22;;
44078;SDS011;29744;49.078;12.878;2022-08-19T05:02:43;4.32;;;3.20;;
44078;SDS011;29744;49.078;12.878;2022-08-19T05:07:43;4.43;;;3.30;;
44078;SDS011;29744;49.078;12.878;2022-08-19T05:12:43;5.03;;;3.67;;
44078;SDS011;29744;49.078;12.878;2022-08-19T05:17:44;4.35;;;3.20;;
44078;SDS011;29744;49.078;12.878;2022-08-19T05:23:04;4.55;;;3.38;;
44078;SDS011;29744;49.078;12.878;2022-08-19T05:28:04;6.88;;;3.70;;
44078;SDS011;29744;49.078;12.878;2022-08-19T05:33:05;5.40;;;3.75;;
44078;SDS011;29744;49.078;12.878;2022-08-19T05:38:06;5.40;;;4.30;;
44078;SDS011;29744;49.078;12.878;2022-08-19T05:43:08;4.85;;;3.90;;
44078;SDS011;29744;49.078;12.878;2022-08-19T05:48:09;5.63;;;3.92;;
44078;SDS011;29744;49.078;12.878;2022-08-19T05:53:11;5.18;;;4.18;;
44078;SDS011;29744;49.078;12.878;2022-08-19T05:58:11;4.53;;;3.58;;
44078;SDS011;29744;49.078;12.878;2022-08-19T06:03:12;4.32;;;3.33;;
44078;SDS011;29744;49.078;12.878;2022-08-19T06:08:12;5.33;;;3.97;;
44078;SDS011;29744;49.078;12.878;2022-08-19T06:13:12;4.85;;;3.80;;
44078;SDS011;29744;49.078;12.878;2022-08-19T06:18:13;5.07;;;3.90;;
44078;SDS011;29744;49.078;12.878;2022-08-19T06:23:14;5.00;;;3.50;;
44078;SDS011;29744;49.078;12.878;2022-08-19T06:28:15;5.40;;;3.67;;
44078;SDS011;29744;49.078;12.878;2022-08-19T06:33:15;4.65;;;3.50;;
44078;SDS011;29744;49.078;12.878;2022-08-19T06:38:15;4.95;;;3.63;;
44078;SDS011;29744;49.078;12.878;2022-08-19T06:43:16;5.38;;;3.97;;
44078;SDS011;29744;49.078;12.878;2022-08-19T06:48:16;4.63;;;3.80;;
44078;SDS011;29744;49.078;12.878;2022-08-19T06:53:17;5.57;;;3.90;;
44078;SDS011;29744;49.078;12.878;2022-08-19T06:58:19;5.25;;;4.20;;
44078;SDS011;29744;49.078;12.878;2022-08-19T07:03:19;4.90;;;3.97;;
44078;SDS011;29744;49.078;12.878;2022-08-19T07:08:21;5.80;;;4.05;;
44078;SDS011;29744;49.078;12.878;2022-08-19T07:13:21;4.88;;;3.50;;
44078;SDS011;29744;49.078;12.878;2022-08-19T07:18:21;5.20;;;3.97;;
44078;SDS011;29744;49.078;12.878;2022-08-19T07:23:22;5.28;;;4.18;;
44078;SDS011;29744;49.078;12.878;2022-08-19T07:28:23;4.93;;;3.83;;
44078;SDS011;29744;49.078;12.878;2022-08-19T07:33:23;4.53;;;3.63;;
44078;SDS011;29744;49.078;12.878;2022-08-19T07:38:24;5.70;;;3.90;;
44078;SDS011;29744;49.078;12.878;2022-08-19T07:43:24;4.93;;;3.85;;
44078;SDS011;29744;49.078;12.878;2022-08-19T07:48:27;5.90;;;4.20;;
44078;SDS011;29744;49.078;12.878;2022-08-19T07:53:28;4.68;;;3.63;;
44078;SDS011;29744;49.078;12.878;2022-08-19T07:58:31;6.43;;;3.97;;
44078;SDS011;29744;49.078;12.878;2022-08-19T08:03:35;5.82;;;3.83;;
44078;SDS011;29744;49.078;12.878;2022-08-19T08:08:55;5.80;;;3.90;;
44078;SDS011;29744;49.078;12.878;2022-08-19T08:14:11;5.38;;;3.80;;
44078;SDS011;29744;49.078;12.878;2022-08-19T08:19:13;4.95;;;3.95;;
44078;SDS011;29744;49.078;12.878;2022-08-19T08:24:17;6.45;;;4.38;;
44078;SDS011;29744;49.078;12.878;2022-08-19T08:29:18;5.85;;;4.50;;
44078;SDS011;29744;49.078;12.878;2022-08-19T08:34:19;4.78;;;4.00;;
44078;SDS011;29744;49.078;12.878;2022-08-19T08:39:20;5.03;;;4.10;;
44078;SDS011;29744;49.078;12.878;2022-08-19T08:49:40;5.10;;;3.97;;
44078;SDS011;29744;49.078;12.878;2022-08-19T08:54:46;7.28;;;3.75;;
44078;SDS011;29744;49.078;12.878;2022-08-19T08:59:48;5.53;;;4.32;;
44078;SDS011;29744;49.078;12.878;2022-08-19T09:04:53;6.00;;;4.30;;
44078;SDS011;29744;49.078;12.878;2022-08-19T09:09:56;5.43;;;4.03;;
44078;SDS011;29744;49.078;12.878;2022-08-19T09:15:07;5.63;;;4.28;;
44078;SDS011;29744;49.078;12.878;2022-08-19T09:25:12;5.10;;;4.07;;
44078;SDS011;29744;49.078;12.878;2022-08-19T09:30:16;5.85;;;4.13;;
44078;SDS011;29744;49.078;12.878;2022-08-19T09:40:22;5.32;;;3.80;;
44078;SDS011;29744;49.078;12.878;2022-08-19T09:45:23;5.80;;;4.30;;
44078;SDS011;29744;49.078;12.878;2022-08-19T09:50:24;5.47;;;4.30;;
44078;SDS011;29744;49.078;12.878;2022-08-19T09:55:25;5.50;;;4.40;;
44078;SDS011;29744;49.078;12.878;2022-08-19T10:00:26;5.18;;;4.07;;
44078;SDS011;29744;49.078;12.878;2022-08-19T10:05:26;5.78;;;4.20;;
44078;SDS011;29744;49.078;12.878;2022-08-19T10:10:45;5.45;;;4.13;;
44078;SDS011;29744;49.078;12.878;2022-08-19T10:15:46;5.15;;;4.28;;
44078;SDS011;29744;49.078;12.878;2022-08-19T10:20:51;5.78;;;4.20;;
44078;SDS011;29744;49.078;12.878;2022-08-19T10:25:52;5.00;;;4.07;;
44078;SDS011;29744;49.078;12.878;2022-08-19T10:30:53;5.47;;;4.10;;
44078;SDS011;29744;49.078;12.878;2022-08-19T10:36:00;5.45;;;4.28;;
44078;SDS011;29744;49.078;12.878;2022-08-19T10:41:09;5.05;;;3.90;;
44078;SDS011;29744;49.078;12.878;2022-08-19T10:46:12;5.05;;;3.90;;
44078;SDS011;29744;49.078;12.878;2022-08-19T10:51:14;5.40;;;4.28;;
44078;SDS011;29744;49.078;12.878;2022-08-19T10:56:34;5.75;;;4.32;;
44078;SDS011;29744;49.078;12.878;2022-08-19T11:01:53;5.35;;;4.28;;
44078;SDS011;29744;49.078;12.878;2022-08-19T11:06:58;5.40;;;3.85;;
44078;SDS011;29744;49.078;12.878;2022-08-19T11:11:59;5.22;;;3.97;;
44078;SDS011;29744;49.078;12.878;2022-08-19T11:16:59;5.40;;;4.25;;
44078;SDS011;29744;49.078;12.878;2022-08-19T11:22:00;5.50;;;4.30;;
44078;SDS011;29744;49.078;12.878;2022-08-19T11:27:05;5.55;;;4.38;;
44078;SDS011;29744;49.078;12.878;2022-08-19T11:32:09;7.13;;;4.88;;
44078;SDS011;29744;49.078;12.878;2022-08-19T11:37:10;5.85;;;4.70;;
44078;SDS011;29744;49.078;12.878;2022-08-19T11:42:11;9.00;;;4.53;;
44078;SDS011;29744;49.078;12.878;2022-08-19T11:47:29;6.90;;;4.88;;
44078;SDS011;29744;49.078;12.878;2022-08-19T11:52:30;6.40;;;4.80;;
44078;SDS011;29744;49.078;12.878;2022-08-19T11:57:31;6.82;;;4.75;;
44078;SDS011;29744;49.078;12.878;2022-08-19T12:02:31;9.05;;;5.45;;
44078;SDS011;29744;49.078;12.878;2022-08-19T12:07:32;7.30;;;4.85;;
44078;SDS011;29744;49.078;12.878;2022-08-19T12:12:33;6.65;;;4.82;;
44078;SDS011;29744;49.078;12.878;2022-08-19T12:17:34;7.55;;;5.30;;
44078;SDS011;29744;49.078;12.878;2022-08-19T12:22:35;10.25;;;5.68;;
44078;SDS011;29744;49.078;12.878;2022-08-19T12:27:36;6.72;;;5.32;;
44078;SDS011;29744;49.078;12.878;2022-08-19T12:32:37;6.43;;;5.05;;
44078;SDS011;29744;49.078;12.878;2022-08-19T12:37:38;6.78;;;5.45;;
44078;SDS011;29744;49.078;12.878;2022-08-19T12:42:42;7.35;;;5.47;;
44078;SDS011;29744;49.078;12.878;2022-08-19T12:47:42;7.23;;;5.50;;
44078;SDS011;29744;49.078;12.878;2022-08-19T12:52:43;6.65;;;5.82;;
44078;SDS011;29744;49.078;12.878;2022-08-19T12:57:43;7.55;;;5.85;;
44078;SDS011;29744;49.078;12.878;2022-08-19T13:02:45;7.20;;;5.60;;
44078;SDS011;29744;49.078;12.878;2022-08-19T13:07:47;7.97;;;5.55;;
44078;SDS011;29744;49.078;12.878;2022-08-19T13:12:48;7.25;;;5.70;;
44078;SDS011;29744;49.078;12.878;2022-08-19T13:17:50;8.35;;;5.50;;
44078;SDS011;29744;49.078;12.878;2022-08-19T13:22:53;7.30;;;5.75;;
44078;SDS011;29744;49.078;12.878;2022-08-19T13:27:54;7.97;;;5.85;;
44078;SDS011;29744;49.078;12.878;2022-08-19T13:32:55;7.43;;;5.18;;
44078;SDS011;29744;49.078;12.878;2022-08-19T13:38:10;8.77;;;5.97;;
44078;SDS011;29744;49.078;12.878;2022-08-19T13:43:11;8.23;;;6.07;;
44078;SDS011;29744;49.078;12.878;2022-08-19T13:48:11;8.05;;;5.63;;
44078;SDS011;29744;49.078;12.878;2022-08-19T13:53:12;6.28;;;5.32;;
44078;SDS011;29744;49.078;12.878;2022-08-19T13:58:12;7.68;;;5.63;;
44078;SDS011;29744;49.078;12.878;2022-08-19T14:03:13;6.85;;;5.53;;
44078;SDS011;29744;49.078;12.878;2022-08-19T14:08:13;6.55;;;5.18;;
44078;SDS011;29744;49.078;12.878;2022-08-19T14:13:15;8.90;;;5.85;;
44078;SDS011;29744;49.078;12.878;2022-08-19T14:18:17;6.43;;;5.28;;
44078;SDS011;29744;49.078;12.878;2022-08-19T14:23:18;7.20;;;6.07;;
44078;SDS011;29744;49.078;12.878;2022-08-19T14:28:19;7.95;;;5.95;;
44078;SDS011;29744;49.078;12.878;2022-08-19T14:33:20;7.28;;;5.95;;
44078;SDS011;29744;49.078;12.878;2022-08-19T14:38:20;8.43;;;6.10;;
44078;SDS011;29744;49.078;12.878;2022-08-19T14:43:20;7.20;;;5.50;;
44078;SDS011;29744;49.078;12.878;2022-08-19T14:48:22;6.35;;;5.38;;
44078;SDS011;29744;49.078;12.878;2022-08-19T14:53:23;7.00;;;5.43;;
44078;SDS011;29744;49.078;12.878;2022-08-19T14:58:23;7.50;;;5.78;;
44078;SDS011;29744;49.078;12.878;2022-08-19T15:03:23;6.70;;;5.70;;
44078;SDS011;29744;49.078;12.878;2022-08-19T15:08:24;7.72;;;6.10;;
44078;SDS011;29744;49.078;12.878;2022-08-19T15:13:25;7.20;;;5.40;;
44078;SDS011;29744;49.078;12.878;2022-08-19T15:18:27;7.45;;;5.32;;
44078;SDS011;29744;49.078;12.878;2022-08-19T15:23:27;7.45;;;5.65;;
44078;SDS011;29744;49.078;12.878;2022-08-19T15:28:28;6.82;;;5.55;;
44078;SDS011;29744;49.078;12.878;2022-08-19T15:33:33;6.78;;;5.40;;
44078;SDS011;29744;49.078;12.878;2022-08-19T15:38:37;5.97;;;5.22;;
44078;SDS011;29744;49.078;12.878;2022-08-19T15:43:39;7.25;;;5.68;;
44078;SDS011;29744;49.078;12.878;2022-08-19T15:48:41;6.88;;;5.28;;
44078;SDS011;29744;49.078;12.878;2022-08-19T15:53:42;6.25;;;5.10;;
44078;SDS011;29744;49.078;12.878;2022-08-19T15:58:43;7.30;;;5.18;;
44078;SDS011;29744;49.078;12.878;2022-08-19T16:04:02;6.13;;;5.13;;
44078;SDS011;29744;49.078;12.878;2022-08-19T16:09:23;7.18;;;5.15;;
44078;SDS011;29744;49.078;12.878;2022-08-19T16:14:28;7.05;;;5.15;;
44078;SDS011;29744;49.078;12.878;2022-08-19T16:19:32;5.77;;;4.80;;
44078;SDS011;29744;49.078;12.878;2022-08-19T16:24:33;6.15;;;5.32;;
44078;SDS011;29744;49.078;12.878;2022-08-19T16:29:34;7.27;;;5.03;;
44078;SDS011;29744;49.078;12.878;2022-08-19T16:34:35;7.15;;;5.20;;
44078;SDS011;29744;49.078;12.878;2022-08-19T16:39:37;6.05;;;4.95;;
44078;SDS011;29744;49.078;12.878;2022-08-19T16:44:41;6.85;;;4.88;;
44078;SDS011;29744;49.078;12.878;2022-08-19T16:49:44;6.32;;;5.10;;
44078;SDS011;29744;49.078;12.878;2022-08-19T16:54:44;6.40;;;5.13;;
44078;SDS011;29744;49.078;12.878;2022-08-19T16:59:45;6.35;;;5.47;;
44078;SDS011;29744;49.078;12.878;2022-08-19T17:04:45;6.10;;;5.07;;
44078;SDS011;29744;49.078;12.878;2022-08-19T17:09:48;6.97;;;4.93;;
44078;SDS011;29744;49.078;12.878;2022-08-19T17:14:49;6.10;;;4.88;;
44078;SDS011;29744;49.078;12.878;2022-08-19T17:19:49;8.25;;;5.20;;
44078;SDS011;29744;49.078;12.878;2022-08-19T17:24:50;7.07;;;5.20;;
44078;SDS011;29744;49.078;12.878;2022-08-19T17:29:50;6.20;;;4.93;;
44078;SDS011;29744;49.078;12.878;2022-08-19T17:34:51;6.38;;;4.45;;
44078;SDS011;29744;49.078;12.878;2022-08-19T17:39:55;6.05;;;4.70;;
44078;SDS011;29744;49.078;12.878;2022-08-19T17:44:55;5.78;;;4.47;;
44078;SDS011;29744;49.078;12.878;2022-08-19T17:49:58;7.53;;;4.90;;
44078;SDS011;29744;49.078;12.878;2022-08-19T17:54:58;6.13;;;4.85;;
44078;SDS011;29744;49.078;12.878;2022-08-19T17:59:58;6.33;;;4.33;;
44078;SDS011;29744;49.078;12.878;2022-08-19T18:04:59;5.85;;;4.55;;
44078;SDS011;29744;49.078;12.878;2022-08-19T18:09:59;5.87;;;4.67;;
44078;SDS011;29744;49.078;12.878;2022-08-19T18:15:00;5.75;;;4.40;;
44078;SDS011;29744;49.078;12.878;2022-08-19T18:20:07;6.07;;;4.60;;
44078;SDS011;29744;49.078;12.878;2022-08-19T18:25:14;5.78;;;4.38;;
44078;SDS011;29744;49.078;12.878;2022-08-19T18:30:23;5.25;;;4.38;;
44078;SDS011;29744;49.078;12.878;2022-08-19T18:35:25;5.10;;;4.05;;
44078;SDS011;29744;49.078;12.878;2022-08-19T18:40:29;5.30;;;3.97;;
44078;SDS011;29744;49.078;12.878;2022-08-19T18:45:49;5.65;;;4.35;;
44078;SDS011;29744;49.078;12.878;2022-08-19T18:51:10;5.22;;;4.22;;
44078;SDS011;29744;49.078;12.878;2022-08-19T18:56:12;5.32;;;4.20;;
44078;SDS011;29744;49.078;12.878;2022-08-19T19:01:18;5.70;;;4.40;;
44078;SDS011;29744;49.078;12.878;2022-08-19T19:06:25;5.35;;;4.40;;
44078;SDS011;29744;49.078;12.878;2022-08-19T19:11:30;5.28;;;4.28;;
44078;SDS011;29744;49.078;12.878;2022-08-19T19:16:32;5.00;;;3.90;;
44078;SDS011;29744;49.078;12.878;2022-08-19T19:21:33;5.47;;;4.43;;
44078;SDS011;29744;49.078;12.878;2022-08-19T19:26:34;5.82;;;4.45;;
44078;SDS011;29744;49.078;12.878;2022-08-19T19:31:35;5.45;;;4.38;;
44078;SDS011;29744;49.078;12.878;2022-08-19T19:36:36;5.75;;;4.30;;
44078;SDS011;29744;49.078;12.878;2022-08-19T19:41:38;5.82;;;4.32;;
44078;SDS011;29744;49.078;12.878;2022-08-19T19:46:40;5.18;;;3.92;;
44078;SDS011;29744;49.078;12.878;2022-08-19T19:51:41;5.07;;;3.97;;
44078;SDS011;29744;49.078;12.878;2022-08-19T19:56:42;4.95;;;3.90;;
44078;SDS011;29744;49.078;12.878;2022-08-19T20:01:43;5.57;;;4.47;;
44078;SDS011;29744;49.078;12.878;2022-08-19T20:06:45;5.32;;;3.97;;
44078;SDS011;29744;49.078;12.878;2022-08-19T20:16:48;6.10;;;4.32;;
44078;SDS011;29744;49.078;12.878;2022-08-19T20:21:49;5.38;;;3.72;;
44078;SDS011;29744;49.078;12.878;2022-08-19T20:26:49;5.38;;;3.60;;
44078;SDS011;29744;49.078;12.878;2022-08-19T20:31:50;5.80;;;3.65;;
44078;SDS011;29744;49.078;12.878;2022-08-19T20:36:50;5.00;;;3.83;;
44078;SDS011;29744;49.078;12.878;2022-08-19T20:41:51;4.63;;;3.33;;
44078;SDS011;29744;49.078;12.878;2022-08-19T20:46:52;4.90;;;3.40;;
44078;SDS011;29744;49.078;12.878;2022-08-19T20:51:53;5.25;;;3.58;;
44078;SDS011;29744;49.078;12.878;2022-08-19T20:56:54;5.20;;;3.67;;
44078;SDS011;29744;49.078;12.878;2022-08-19T21:01:55;4.85;;;3.30;;
44078;SDS011;29744;49.078;12.878;2022-08-19T21:06:56;4.78;;;3.58;;
44078;SDS011;29744;49.078;12.878;2022-08-19T21:11:56;5.20;;;3.75;;
44078;SDS011;29744;49.078;12.878;2022-08-19T21:16:56;4.65;;;3.30;;
44078;SDS011;29744;49.078;12.878;2022-08-19T21:21:58;4.90;;;3.33;;
44078;SDS011;29744;49.078;12.878;2022-08-19T21:26:59;4.47;;;3.20;;
44078;SDS011;29744;49.078;12.878;2022-08-19T21:32:00;4.25;;;2.97;;
44078;SDS011;29744;49.078;12.878;2022-08-19T21:37:01;4.55;;;3.13;;
44078;SDS011;29744;49.078;12.878;2022-08-19T21:42:01;4.53;;;3.47;;
44078;SDS011;29744;49.078;12.878;2022-08-19T21:47:01;4.88;;;3.20;;
44078;SDS011;29744;49.078;12.878;2022-08-19T21:52:04;5.20;;;3.30;;
44078;SDS011;29744;49.078;12.878;2022-08-19T21:57:05;4.45;;;3.25;;
44078;SDS011;29744;49.078;12.878;2022-08-19T22:02:05;5.15;;;3.45;;
44078;SDS011;29744;49.078;12.878;2022-08-19T22:07:06;4.13;;;3.03;;
44078;SDS011;29744;49.078;12.878;2022-08-19T22:12:14;5.15;;;3.55;;
44078;SDS011;29744;49.078;12.878;2022-08-19T22:17:23;5.35;;;3.50;;
44078;SDS011;29744;49.078;12.878;2022-08-19T22:22:27;5.68;;;3.30;;
44078;SDS011;29744;49.078;12.878;2022-08-19T22:27:30;6.45;;;3.50;;
44078;SDS011;29744;49.078;12.878;2022-08-19T22:32:30;4.70;;;3.55;;
44078;SDS011;29744;49.078;12.878;2022-08-19T22:37:31;5.00;;;3.45;;
44078;SDS011;29744;49.078;12.878;2022-08-19T22:42:31;4.85;;;3.10;;
44078;SDS011;29744;49.078;12.878;2022-08-19T22:47:31;5.18;;;3.25;;
44078;SDS011;29744;49.078;12.878;2022-08-19T22:52:32;5.07;;;3.28;;
44078;SDS011;29744;49.078;12.878;2022-08-19T22:57:33;4.13;;;2.90;;
44078;SDS011;29744;49.078;12.878;2022-08-19T23:02:34;5.18;;;2.88;;
44078;SDS011;29744;49.078;12.878;2022-08-19T23:07:37;6.22;;;3.70;;
44078;SDS011;29744;49.078;12.878;2022-08-19T23:12:39;4.53;;;3.22;;
44078;SDS011;29744;49.078;12.878;2022-08-19T23:17:43;4.38;;;2.88;;
44078;SDS011;29744;49.078;12.878;2022-08-19T23:22:45;4.13;;;2.92;;
44078;SDS011;29744;49.078;12.878;2022-08-19T23:27:50;4.32;;;2.90;;
44078;SDS011;29744;49.078;12.878;2022-08-19T23:33:14;4.20;;;2.92;;
44078;SDS011;29744;49.078;12.878;2022-08-19T23:38:27;4.25;;;2.70;;
44078;SDS011;29744;49.078;12.878;2022-08-19T23:43:29;4.20;;;2.67;;
44078;SDS011;29744;49.078;12.878;2022-08-19T23:48:30;4.65;;;3.00;;
44078;SDS011;29744;49.078;12.878;2022-08-19T23:53:32;4.00;;;2.60;;
44078;SDS011;29744;49.078;12.878;2022-08-19T23:58:33;4.95;;;3.20;;
